Time;durP1;ratioP1;P1;durP2;ratioP2;P2;SDS_P1;SDS_P2;PMS_P1;PMS_P2;Temp;Humidity;BMP_temperature;BMP_pressure;BME280_temperature;BME280_humidity;BME280_pressure;Samples;Min_cycle;Max_cycle;Signal;HPM_P1;HPM_P2
2021/11/16 00:01:38;;;;;;;26.77;17.10;;;6.20;97.70;;;;;;5042404;28;20198;-95
2021/11/16 00:04:24;;;;;;;25.47;16.63;;;6.00;97.70;;;;;;5040797;28;20249;-94
2021/11/16 00:06:53;;;;;;;26.97;17.43;;;6.10;98.20;;;;;;5041265;28;20289;-94
2021/11/16 00:12:41;;;;;;;26.00;16.47;;;6.20;98.30;;;;;;5032574;28;20673;-95
2021/11/16 00:15:09;;;;;;;24.80;16.43;;;6.10;97.90;;;;;;5043807;28;20295;-95
2021/11/16 00:17:37;;;;;;;23.37;15.67;;;6.20;98.10;;;;;;5039939;28;20233;-95
2021/11/16 00:25:58;;;;;;;21.43;15.30;;;6.00;97.90;;;;;;5045979;28;20263;-94
2021/11/16 00:31:06;;;;;;;23.17;15.50;;;6.10;98.20;;;;;;5033408;28;20213;-95
2021/11/16 00:33:33;;;;;;;23.97;15.10;;;6.20;97.90;;;;;;5041696;28;20228;-95
2021/11/16 00:36:00;;;;;;;23.17;14.50;;;6.30;97.60;;;;;;5056051;28;20205;-95
2021/11/16 00:38:27;;;;;;;22.67;14.57;;;6.40;97.10;;;;;;5045998;28;20226;-95
2021/11/16 00:46:39;;;;;;;22.40;14.38;;;6.40;96.60;;;;;;5030731;28;20216;-95
2021/11/16 00:49:06;;;;;;;22.30;14.90;;;6.40;95.70;;;;;;5053308;28;20248;-94
2021/11/16 00:54:14;;;;;;;24.97;15.73;;;5.90;96.80;;;;;;5051627;28;20607;-95
2021/11/16 00:56:41;;;;;;;22.77;15.47;;;5.70;97.50;;;;;;5055633;28;20216;-95
2021/11/16 00:59:09;;;;;;;22.57;15.50;;;5.70;98.20;;;;;;5054265;28;20237;-93
2021/11/16 01:01:36;;;;;;;21.50;14.67;;;5.80;98.40;;;;;;5050248;28;20660;-94
2021/11/16 01:04:04;;;;;;;20.37;14.10;;;6.00;98.70;;;;;;5050861;28;20221;-94
2021/11/16 01:06:31;;;;;;;23.07;15.23;;;6.10;98.20;;;;;;5051066;28;20577;-93
2021/11/16 01:08:58;;;;;;;19.53;14.10;;;6.20;97.70;;;;;;5050502;28;20226;-93
2021/11/16 01:11:25;;;;;;;20.17;14.20;;;6.30;97.30;;;;;;5046046;28;20206;-94
2021/11/16 01:13:51;;;;;;;18.90;13.60;;;6.30;96.70;;;;;;5051294;28;20236;-93
2021/11/16 01:16:20;;;;;;;19.97;14.30;;;6.10;96.60;;;;;;5047095;28;20202;-94
2021/11/16 01:18:47;;;;;;;19.13;13.73;;;6.10;96.70;;;;;;5041594;28;20220;-94
2021/11/16 01:21:14;;;;;;;20.60;13.83;;;6.00;97.00;;;;;;5046037;28;20209;-93
2021/11/16 01:23:46;;;;;;;23.27;14.37;;;6.10;97.30;;;;;;5049206;28;20224;-95
2021/11/16 01:26:13;;;;;;;19.60;13.97;;;6.10;97.30;;;;;;5048452;28;20217;-94
2021/11/16 01:28:40;;;;;;;19.57;13.63;;;6.10;97.10;;;;;;5046783;28;20221;-94
2021/11/16 01:31:07;;;;;;;18.20;13.67;;;6.20;97.40;;;;;;5057610;28;20209;-94
2021/11/16 01:36:19;;;;;;;19.17;13.23;;;6.20;96.40;;;;;;5047589;28;20209;-94
2021/11/16 01:38:48;;;;;;;20.67;14.13;;;6.00;96.20;;;;;;5052340;28;20225;-93
2021/11/16 01:44:00;;;;;;;18.50;13.20;;;5.70;97.30;;;;;;5042821;28;20250;-94
2021/11/16 01:46:27;;;;;;;18.03;13.17;;;5.70;97.60;;;;;;5042968;28;20198;-94
2021/11/16 01:52:11;;;;;;;20.43;13.50;;;5.90;97.90;;;;;;5054949;28;20209;-94
2021/11/16 01:54:39;;;;;;;23.50;14.70;;;5.90;97.80;;;;;;5043756;28;20229;-94
2021/11/16 01:57:07;;;;;;;21.60;13.80;;;5.70;97.40;;;;;;5056773;28;20210;-94
2021/11/16 01:59:34;;;;;;;21.50;14.30;;;5.70;97.80;;;;;;5045409;28;20265;-94
2021/11/16 02:02:02;;;;;;;42.83;14.47;;;5.70;98.20;;;;;;5056272;28;20578;-94
2021/11/16 02:04:32;;;;;;;19.00;12.73;;;5.60;97.80;;;;;;5047846;28;20237;-94
2021/11/16 02:07:01;;;;;;;27.63;14.43;;;5.60;98.10;;;;;;5055117;28;20202;-93
2021/11/16 02:09:28;;;;;;;23.73;14.63;;;5.60;97.80;;;;;;5048791;28;20316;-92
2021/11/16 02:11:55;;;;;;;19.87;14.20;;;5.50;97.80;;;;;;5048562;28;20224;-93
2021/11/16 02:14:23;;;;;;;27.53;15.10;;;5.50;98.30;;;;;;5049062;28;20218;-93
2021/11/16 02:16:49;;;;;;;23.17;14.37;;;5.40;98.50;;;;;;5058011;28;20256;-93
2021/11/16 02:19:19;;;;;;;23.20;14.43;;;5.30;98.70;;;;;;5053058;28;20222;-93
2021/11/16 02:21:49;;;;;;;24.80;15.03;;;5.40;99.20;;;;;;5047105;28;20690;-93
2021/11/16 02:24:16;;;;;;;25.20;14.60;;;5.60;99.30;;;;;;5048922;28;20288;-93
2021/11/16 02:26:43;;;;;;;26.90;15.07;;;5.60;98.80;;;;;;5047439;28;20285;-94
2021/11/16 02:29:11;;;;;;;21.23;14.20;;;5.50;98.70;;;;;;5044583;28;20706;-93
2021/11/16 02:31:38;;;;;;;23.87;14.73;;;5.60;99.50;;;;;;5042217;28;20203;-93
2021/11/16 02:34:08;;;;;;;23.03;15.67;;;5.80;98.60;;;;;;5054717;28;20224;-93
2021/11/16 02:36:36;;;;;;;22.23;14.90;;;5.80;98.20;;;;;;5047622;28;20574;-93
2021/11/16 02:42:25;;;;;;;25.53;15.70;;;5.70;99.10;;;;;;5051623;28;20668;-93
2021/11/16 02:44:52;;;;;;;26.17;15.67;;;5.90;98.60;;;;;;5041453;28;20226;-93
2021/11/16 02:47:19;;;;;;;26.03;15.40;;;5.90;98.80;;;;;;5051910;28;20218;-93
2021/11/16 02:49:55;;;;;;;28.00;16.23;;;6.10;98.90;;;;;;5044849;28;20264;-93
2021/11/16 02:52:23;;;;;;;26.67;16.63;;;6.20;98.20;;;;;;5053219;28;20228;-93
2021/11/16 02:54:54;;;;;;;26.63;15.90;;;6.20;97.60;;;;;;5046435;28;20213;-93
2021/11/16 02:57:21;;;;;;;26.10;15.83;;;6.20;97.80;;;;;;5050641;28;20339;-94
2021/11/16 02:59:49;;;;;;;25.47;15.63;;;6.10;97.30;;;;;;5050137;28;20209;-93
2021/11/16 03:02:16;;;;;;;27.80;17.27;;;6.20;98.30;;;;;;5051426;28;20202;-93
2021/11/16 03:04:45;;;;;;;27.60;16.03;;;6.10;97.60;;;;;;5054622;28;20225;-93
2021/11/16 03:07:14;;;;;;;23.97;14.80;;;6.10;97.90;;;;;;5047395;28;20198;-93
2021/11/16 03:09:49;;;;;;;22.27;14.60;;;6.10;97.80;;;;;;5047614;28;20217;-92
2021/11/16 03:12:18;;;;;;;24.73;14.87;;;6.10;97.90;;;;;;5047446;28;20197;-93
2021/11/16 03:14:45;;;;;;;22.43;14.63;;;6.00;97.70;;;;;;5049903;28;20688;-93
2021/11/16 03:17:13;;;;;;;22.30;14.73;;;6.00;97.60;;;;;;5050967;28;20209;-93
2021/11/16 03:19:40;;;;;;;22.70;14.90;;;5.90;97.90;;;;;;5047204;28;20229;-93
2021/11/16 03:22:08;;;;;;;23.00;14.60;;;5.90;98.40;;;;;;5054452;28;20564;-93
2021/11/16 03:24:36;;;;;;;21.87;14.33;;;6.00;98.30;;;;;;5049767;28;20651;-93
2021/11/16 03:27:08;;;;;;;20.20;14.00;;;6.10;97.90;;;;;;5049023;28;20198;-93
2021/11/16 03:29:43;;;;;;;20.53;12.87;;;6.00;97.90;;;;;;5048092;28;20382;-93
2021/11/16 03:32:12;;;;;;;20.60;13.40;;;6.10;97.90;;;;;;5049084;28;20306;-93
2021/11/16 03:34:42;;;;;;;22.00;13.47;;;6.00;97.30;;;;;;5043892;28;20226;-93
2021/11/16 03:37:10;;;;;;;20.70;12.97;;;6.00;97.40;;;;;;5042518;28;20202;-93
2021/11/16 03:39:38;;;;;;;20.33;12.90;;;5.90;97.90;;;;;;5040412;28;20217;-93
2021/11/16 03:42:06;;;;;;;23.03;14.00;;;5.80;97.70;;;;;;5043334;28;20210;-93
2021/11/16 03:44:33;;;;;;;20.43;12.77;;;5.80;97.90;;;;;;5047417;28;20260;-93
2021/11/16 03:47:03;;;;;;;21.43;13.47;;;5.80;98.70;;;;;;5046058;28;20272;-92
2021/11/16 03:49:30;;;;;;;19.93;12.53;;;6.00;98.30;;;;;;5043843;28;20228;-93
2021/11/16 03:51:57;;;;;;;19.97;12.80;;;6.00;97.90;;;;;;5051269;28;20210;-92
2021/11/16 03:54:24;;;;;;;18.07;12.03;;;6.10;97.90;;;;;;5045549;28;20256;-93
2021/11/16 03:56:52;;;;;;;23.40;14.03;;;6.10;97.50;;;;;;5043341;28;20206;-92
2021/11/16 03:59:19;;;;;;;20.97;12.70;;;6.00;97.40;;;;;;5036287;28;20230;-93
2021/11/16 04:01:46;;;;;;;22.50;13.80;;;5.90;97.30;;;;;;5052510;28;20201;-93
2021/11/16 04:04:17;;;;;;;21.17;12.83;;;5.70;97.80;;;;;;5048315;28;20217;-94
2021/11/16 04:06:45;;;;;;;19.50;12.73;;;5.80;98.40;;;;;;5039632;28;20723;-93
2021/11/16 04:09:11;;;;;;;21.40;13.37;;;5.80;98.10;;;;;;5043691;28;20284;-93
2021/11/16 04:11:38;;;;;;;21.90;12.50;;;5.90;98.20;;;;;;5046603;28;20209;-93
2021/11/16 04:14:05;;;;;;;21.00;13.70;;;6.00;98.40;;;;;;5050266;28;20644;-92
2021/11/16 04:16:32;;;;;;;21.37;13.10;;;6.10;98.20;;;;;;5044369;28;20665;-93
2021/11/16 04:19:03;;;;;;;19.53;12.77;;;6.10;97.90;;;;;;5051821;28;20217;-92
2021/11/16 04:21:31;;;;;;;22.70;13.83;;;6.10;97.90;;;;;;5047292;28;20579;-93
2021/11/16 04:23:58;;;;;;;24.23;13.43;;;6.10;97.90;;;;;;5028378;28;20669;-93
2021/11/16 04:26:28;;;;;;;23.83;14.10;;;6.10;97.90;;;;;;5049082;28;20545;-93
2021/11/16 04:28:55;;;;;;;23.23;14.00;;;6.20;97.50;;;;;;5045571;28;20218;-93
2021/11/16 04:31:22;;;;;;;24.53;14.13;;;6.10;97.50;;;;;;5050146;28;20226;-93
2021/11/16 04:33:49;;;;;;;23.53;14.27;;;6.00;97.90;;;;;;5046838;28;20222;-92
2021/11/16 04:36:17;;;;;;;24.47;14.93;;;6.00;98.40;;;;;;5046280;28;20202;-93
2021/11/16 04:38:48;;;;;;;23.13;14.63;;;5.80;98.10;;;;;;5056735;28;20230;-93
2021/11/16 04:41:15;;;;;;;24.03;14.10;;;5.80;98.80;;;;;;5049281;28;20653;-93
2021/11/16 04:43:43;;;;;;;22.80;14.43;;;5.90;98.60;;;;;;5048706;28;20723;-93
2021/11/16 04:46:16;;;;;;;22.90;14.00;;;6.10;98.80;;;;;;5045370;28;20739;-92
2021/11/16 04:51:46;;;;;;;23.43;14.37;;;6.30;97.30;;;;;;5133627;27;20630;-93
2021/11/16 04:59:53;;;;;;;23.50;13.87;;;6.30;97.80;;;;;;5065903;28;20303;-93
2021/11/16 05:02:38;;;;;;;21.83;13.43;;;6.20;97.50;;;;;;5086153;28;20200;-93
2021/11/16 05:05:09;;;;;;;22.20;13.43;;;6.20;97.80;;;;;;5084600;28;20295;-94
2021/11/16 05:07:41;;;;;;;22.23;13.80;;;6.10;97.30;;;;;;5086149;28;20205;-93
2021/11/16 05:10:10;;;;;;;23.23;13.90;;;6.20;97.70;;;;;;5087467;28;20228;-92
2021/11/16 05:12:37;;;;;;;22.60;14.10;;;6.20;97.60;;;;;;5083011;28;20207;-93
2021/11/16 05:15:07;;;;;;;20.63;14.10;;;6.00;97.70;;;;;;5066690;28;20208;-93
2021/11/16 05:17:34;;;;;;;23.20;14.03;;;5.90;97.90;;;;;;5066034;28;20211;-93
2021/11/16 05:20:02;;;;;;;20.83;13.63;;;5.80;98.40;;;;;;5062649;28;20197;-92
2021/11/16 05:22:29;;;;;;;21.67;13.00;;;5.80;98.80;;;;;;5064306;28;20312;-92
2021/11/16 05:24:57;;;;;;;21.13;13.33;;;5.90;99.30;;;;;;5066184;28;20197;-93
2021/11/16 05:27:24;;;;;;;22.37;13.33;;;6.10;99.10;;;;;;5067277;28;20201;-92
2021/11/16 05:29:51;;;;;;;21.53;13.97;;;6.10;98.50;;;;;;5068846;28;20226;-93
2021/11/16 05:32:18;;;;;;;23.90;13.73;;;6.00;98.10;;;;;;5066019;28;20201;-93
2021/11/16 05:34:46;;;;;;;21.27;13.20;;;5.90;98.30;;;;;;5071822;28;20585;-92
2021/11/16 05:37:14;;;;;;;20.30;12.43;;;6.00;98.80;;;;;;5067142;28;20567;-93
2021/11/16 05:39:41;;;;;;;17.67;11.93;;;6.10;98.20;;;;;;5066987;28;20262;-93
2021/11/16 05:42:10;;;;;;;21.87;13.57;;;6.00;97.90;;;;;;5064727;28;20201;-93
2021/11/16 05:44:37;;;;;;;21.10;12.70;;;5.90;97.90;;;;;;5084238;28;20220;-92
2021/11/16 05:47:04;;;;;;;20.20;13.40;;;5.90;98.30;;;;;;5086660;28;20205;-93
2021/11/16 05:49:32;;;;;;;22.20;12.57;;;6.00;98.60;;;;;;5082219;28;20620;-93
2021/11/16 05:52:01;;;;;;;21.40;12.07;;;6.10;98.20;;;;;;5067808;28;20201;-92
2021/11/16 05:54:32;;;;;;;21.37;12.23;;;6.00;98.10;;;;;;5066076;28;20226;-93
2021/11/16 05:57:13;;;;;;;18.47;11.43;;;6.00;97.90;;;;;;5059315;28;20211;-93
2021/11/16 06:00:00;;;;;;;18.90;11.77;;;6.10;98.50;;;;;;5063978;28;20316;-93
2021/11/16 06:02:27;;;;;;;18.60;10.90;;;6.30;97.70;;;;;;5053670;28;20632;-94
2021/11/16 06:04:54;;;;;;;16.33;10.83;;;6.40;97.00;;;;;;5046599;28;20729;-92
2021/11/16 06:07:21;;;;;;;19.03;11.23;;;6.40;96.20;;;;;;5045767;28;20204;-94
2021/11/16 06:09:48;;;;;;;18.23;10.80;;;6.30;96.50;;;;;;5053422;28;20301;-94
2021/11/16 06:15:09;;;;;;;19.00;10.83;;;6.20;96.80;;;;;;5039544;28;20593;-93
2021/11/16 06:20:35;;;;;;;18.53;10.70;;;6.20;97.00;;;;;;5040078;28;20191;-94
2021/11/16 06:23:03;;;;;;;14.10;9.43;;;6.20;96.40;;;;;;5045304;28;20202;-91
2021/11/16 06:25:30;;;;;;;14.93;10.30;;;6.20;96.70;;;;;;5055206;28;20208;-91
2021/11/16 06:27:58;;;;;;;18.13;9.93;;;6.20;96.60;;;;;;5045240;28;20226;-89
2021/11/16 06:30:27;;;;;;;16.47;10.67;;;6.40;96.80;;;;;;5052049;28;20221;-94
2021/11/16 06:32:56;;;;;;;19.67;10.27;;;6.20;96.50;;;;;;5047858;28;20226;-88
2021/11/16 06:35:24;;;;;;;14.80;9.60;;;6.10;96.40;;;;;;5030502;28;20205;-91
2021/11/16 06:37:52;;;;;;;13.67;9.63;;;5.90;96.80;;;;;;5031385;28;20222;-91
2021/11/16 06:40:19;;;;;;;15.77;9.80;;;6.00;97.10;;;;;;5034341;28;20210;-92
2021/11/16 06:42:47;;;;;;;14.37;9.40;;;6.00;96.40;;;;;;5037808;28;20206;-91
2021/11/16 06:45:16;;;;;;;12.40;8.37;;;6.00;96.60;;;;;;5019270;28;20200;-91
2021/11/16 06:47:43;;;;;;;14.53;9.40;;;6.10;96.00;;;;;;5022228;28;20209;-92
2021/11/16 07:13:29;;;;;;;11.10;7.90;;;5.70;96.10;;;;;;5538049;22;20241;-92
2021/11/16 07:16:16;;;;;;;12.07;8.00;;;5.80;96.50;;;;;;5017224;28;20203;-85
2021/11/16 07:18:49;;;;;;;11.53;8.23;;;5.80;96.90;;;;;;5017203;28;20238;-91
2021/11/16 07:21:16;;;;;;;13.40;8.33;;;5.90;96.60;;;;;;5015688;28;20210;-92
2021/11/16 07:24:09;;;;;;;10.97;7.70;;;5.90;96.40;;;;;;5022248;28;20648;-93
2021/11/16 07:26:41;;;;;;;13.07;8.13;;;5.60;95.70;;;;;;5044241;28;20194;-94
2021/11/16 07:29:15;;;;;;;11.20;7.93;;;5.70;97.30;;;;;;5043445;28;20222;-92
2021/11/16 07:31:45;;;;;;;10.10;7.17;;;5.80;96.70;;;;;;5035973;28;20229;-92
2021/11/16 07:34:42;;;;;;;9.97;7.00;;;5.90;96.00;;;;;;5029723;28;20254;-92
2021/11/16 07:37:11;;;;;;;9.37;6.50;;;5.90;95.30;;;;;;5034217;28;20209;-91
2021/11/16 07:39:53;;;;;;;11.03;7.20;;;5.90;95.30;;;;;;5027140;28;20712;-92
2021/11/16 07:42:22;;;;;;;10.67;7.10;;;5.80;95.20;;;;;;5032234;28;20203;-93
2021/11/16 07:45:10;;;;;;;10.70;7.87;;;5.80;95.20;;;;;;5019218;28;20219;-93
2021/11/16 07:47:43;;;;;;;13.07;7.90;;;5.60;95.70;;;;;;5020035;28;20653;-92
2021/11/16 07:50:13;;;;;;;10.20;7.30;;;5.60;96.70;;;;;;5026352;28;20214;-92
2021/11/16 07:52:44;;;;;;;9.47;7.33;;;5.70;96.10;;;;;;5026559;28;20209;-92
2021/11/16 07:55:33;;;;;;;10.27;6.87;;;5.70;96.10;;;;;;5021693;28;20713;-91
2021/11/16 07:58:04;;;;;;;10.13;7.30;;;6.00;96.00;;;;;;5021453;28;20234;-90
2021/11/16 08:00:34;;;;;;;9.93;7.53;;;6.10;95.30;;;;;;5027219;28;20206;-89
2021/11/16 08:03:10;;;;;;;10.23;7.27;;;6.00;95.30;;;;;;5018304;28;20221;-90
2021/11/16 08:09:12;;;;;;;10.97;7.37;;;6.00;95.60;;;;;;5033177;28;20265;-92
2021/11/16 08:11:42;;;;;;;8.93;6.50;;;5.80;95.20;;;;;;5034818;28;20225;-91
2021/11/16 08:24:28;;;;;;;10.13;7.40;;;5.90;94.60;;;;;;5091254;28;20220;-91
2021/11/16 08:27:25;;;;;;;10.83;7.30;;;5.80;95.20;;;;;;5095363;28;20575;-92
2021/11/16 08:30:03;;;;;;;11.60;8.00;;;6.10;94.90;;;;;;5095296;28;20220;-93
2021/11/16 08:32:35;;;;;;;13.20;8.80;;;6.10;94.70;;;;;;5086179;28;20290;-91
2021/11/16 08:35:07;;;;;;;11.00;7.53;;;6.10;95.10;;;;;;5058568;28;20210;-94
2021/11/16 09:06:56;;;;;;;11.07;8.10;;;6.00;95.20;;;;;;5077949;28;20181;-95
2021/11/16 09:17:43;;;;;;;10.10;7.57;;;6.00;95.30;;;;;;4989284;28;20200;-94
2021/11/16 09:42:36;;;;;;;12.00;7.87;;;6.40;94.10;;;;;;5369622;22;20241;-92
2021/11/16 09:45:09;;;;;;;9.80;7.37;;;6.50;94.20;;;;;;5039633;28;20240;-93
2021/11/16 09:47:46;;;;;;;10.07;7.97;;;6.60;94.10;;;;;;5038244;28;20233;-94
2021/11/16 10:00:55;;;;;;;11.03;7.80;;;6.60;94.40;;;;;;5793138;23;20226;-93
2021/11/16 10:03:24;;;;;;;10.90;8.10;;;6.50;94.30;;;;;;5033666;28;20244;-93
2021/11/16 10:05:54;;;;;;;14.17;8.57;;;6.60;94.30;;;;;;5015706;28;20215;-92
2021/11/16 10:08:23;;;;;;;9.80;7.93;;;6.70;93.40;;;;;;5025069;28;20256;-92
2021/11/16 10:11:27;;;;;;;12.40;8.13;;;6.50;94.40;;;;;;5018919;28;20562;-93
2021/11/16 10:34:13;;;;;;;12.07;7.73;;;6.20;95.30;;;;;;5001805;28;20623;-94
2021/11/16 10:36:42;;;;;;;10.07;7.57;;;6.10;95.20;;;;;;5030099;28;20284;-92
2021/11/16 10:39:09;;;;;;;13.13;8.90;;;6.00;95.30;;;;;;5032562;28;20223;-92
2021/11/16 10:41:38;;;;;;;11.27;7.97;;;6.00;95.30;;;;;;5030349;28;20241;-93
2021/11/16 10:44:07;;;;;;;10.57;7.50;;;5.90;95.30;;;;;;5031590;28;20229;-95
2021/11/16 11:04:41;;;;;;;9.90;6.90;;;6.30;94.00;;;;;;5021797;28;20574;-92
2021/11/16 11:07:12;;;;;;;11.60;8.13;;;6.20;93.90;;;;;;5024030;28;20199;-92
2021/11/16 11:10:06;;;;;;;10.50;7.30;;;6.30;94.10;;;;;;5037277;28;20230;-92
2021/11/16 11:12:38;;;;;;;11.43;8.13;;;6.40;94.80;;;;;;5033103;28;20318;-93
2021/11/16 11:18:27;;;;;;;12.80;8.43;;;6.50;94.00;;;;;;5015187;28;20571;-92
2021/11/16 11:20:56;;;;;;;11.70;8.07;;;6.30;93.80;;;;;;5034051;28;20222;-94
2021/11/16 11:23:46;;;;;;;12.30;8.53;;;6.30;94.40;;;;;;5025805;28;20226;-92
2021/11/16 11:29:24;;;;;;;13.73;8.83;;;6.20;95.10;;;;;;5023140;28;20296;-91
2021/11/16 11:37:33;;;;;;;12.10;8.20;;;6.40;94.10;;;;;;5020147;28;20279;-92
2021/11/16 11:46:45;;;;;;;10.27;7.73;;;6.30;94.30;;;;;;4977751;28;20203;-94
2021/11/16 12:11:34;;;;;;;11.57;8.33;;;6.90;93.60;;;;;;4978161;28;20215;-93
2021/11/16 12:14:05;;;;;;;11.40;8.00;;;6.80;93.90;;;;;;5018721;28;20293;-93
2021/11/16 12:16:53;;;;;;;13.32;8.85;;;6.90;93.30;;;;;;5015584;28;20246;-92
2021/11/16 12:23:01;;;;;;;11.13;8.37;;;6.80;94.00;;;;;;5008879;28;20633;-93
2021/11/16 12:25:29;;;;;;;11.70;8.35;;;6.90;93.50;;;;;;5014468;28;20207;-92
2021/11/16 12:27:58;;;;;;;12.63;8.70;;;6.90;93.00;;;;;;5012719;28;20273;-92
2021/11/16 12:30:37;;;;;;;12.33;8.73;;;6.80;93.40;;;;;;5003425;28;20195;-94
2021/11/16 12:33:05;;;;;;;13.00;8.63;;;6.70;93.80;;;;;;5019069;28;20245;-92
2021/11/16 12:35:48;;;;;;;14.67;9.43;;;6.60;94.30;;;;;;5012373;28;20206;-92
2021/11/16 12:38:37;;;;;;;14.83;9.37;;;6.60;94.50;;;;;;5013304;28;20254;-94
2021/11/16 12:41:36;;;;;;;16.20;10.23;;;6.50;94.20;;;;;;5013084;28;20200;-91
2021/11/16 12:47:31;;;;;;;15.40;8.63;;;6.40;95.40;;;;;;5000364;28;20210;-96
2021/11/16 13:06:35;;;;;;;13.03;9.00;;;6.90;94.90;;;;;;5034001;28;20564;-92
2021/11/16 13:11:54;;;;;;;12.75;8.90;;;7.00;94.00;;;;;;5031597;28;20225;-92
2021/11/16 13:14:49;;;;;;;13.00;8.73;;;7.10;93.70;;;;;;5034686;28;20205;-92
2021/11/16 13:17:50;;;;;;;12.00;8.88;;;7.10;93.10;;;;;;5032616;28;20210;-91
2021/11/16 13:20:32;;;;;;;12.75;8.50;;;6.90;94.00;;;;;;5035144;28;20241;-92
2021/11/16 13:23:23;;;;;;;12.83;8.90;;;7.00;93.50;;;;;;5038135;28;20205;-91
2021/11/16 13:25:53;;;;;;;13.63;8.77;;;7.10;93.20;;;;;;5038926;28;20213;-90
2021/11/16 13:31:51;;;;;;;14.10;8.73;;;7.10;93.10;;;;;;4961713;29;20213;-90
2021/11/16 13:34:31;;;;;;;13.73;9.37;;;7.20;93.00;;;;;;5035472;28;20226;-91
2021/11/16 13:40:23;;;;;;;13.43;8.77;;;6.90;93.10;;;;;;5020155;28;20211;-91
2021/11/16 13:43:24;;;;;;;14.47;9.67;;;6.80;94.50;;;;;;5021360;28;20571;-92
2021/11/16 13:45:52;;;;;;;15.37;9.63;;;6.90;93.90;;;;;;5024526;28;20213;-91
2021/11/16 13:48:27;;;;;;;16.63;10.20;;;6.70;93.50;;;;;;5030624;28;20397;-89
2021/11/16 13:50:58;;;;;;;19.33;11.07;;;6.70;94.50;;;;;;5029191;28;20230;-93
2021/11/16 13:53:25;;;;;;;22.67;9.60;;;6.60;94.10;;;;;;5035648;28;20241;-88
2021/11/16 13:55:59;;;;;;;14.35;9.73;;;6.70;94.60;;;;;;5027689;28;20252;-88
2021/11/16 13:58:40;;;;;;;14.80;10.47;;;6.80;94.10;;;;;;5019884;28;20218;-90
2021/11/16 14:01:07;;;;;;;15.67;10.40;;;6.90;94.10;;;;;;5031049;28;20238;-93
2021/11/16 14:04:20;;;;;;;16.48;10.05;;;7.10;93.60;;;;;;5032000;28;20305;-92
2021/11/16 14:06:49;;;;;;;18.30;10.87;;;6.80;93.40;;;;;;5027528;28;20226;-90
2021/11/16 14:09:20;;;;;;;16.42;10.98;;;6.60;93.90;;;;;;5020836;28;20227;-90
2021/11/16 14:12:24;;;;;;;16.53;10.37;;;6.50;94.30;;;;;;5025832;28;20226;-91
2021/11/16 14:15:07;;;;;;;16.38;11.05;;;6.50;95.40;;;;;;5018339;28;20285;-91
2021/11/16 14:17:37;;;;;;;15.80;10.47;;;6.60;94.40;;;;;;5039439;28;20282;-92
2021/11/16 14:27:36;;;;;;;13.17;9.07;;;6.90;94.00;;;;;;4917830;29;20251;-92
2021/11/16 14:30:15;;;;;;;15.70;9.80;;;6.90;93.70;;;;;;4912836;29;20335;-91
2021/11/16 14:33:08;;;;;;;16.07;10.33;;;6.90;93.80;;;;;;4999170;28;20229;-92
2021/11/16 14:35:36;;;;;;;15.47;9.97;;;6.90;93.40;;;;;;5035494;28;20202;-92
2021/11/16 14:38:38;;;;;;;16.70;11.33;;;6.70;94.30;;;;;;5005419;28;20772;-93
2021/11/16 14:41:11;;;;;;;17.03;9.77;;;6.60;94.40;;;;;;5030974;28;20198;-93
2021/11/16 14:46:26;;;;;;;13.90;9.60;;;6.50;94.50;;;;;;5023564;28;20218;-88
2021/11/16 14:48:57;;;;;;;14.27;9.80;;;6.50;94.40;;;;;;5019894;28;20246;-89
2021/11/16 14:51:36;;;;;;;14.43;9.03;;;6.40;94.60;;;;;;5029465;28;20219;-91
2021/11/16 14:54:08;;;;;;;12.87;8.67;;;6.50;94.40;;;;;;5034192;28;20265;-92
2021/11/16 15:22:56;;;;;;;18.73;11.13;;;6.10;95.00;;;;;;4958960;28;21004;-94
2021/11/16 15:32:35;;;;;;;14.10;8.10;;;6.10;95.30;;;;;;4967148;28;20216;-93
2021/11/16 15:39:16;;;;;;;12.87;8.77;;;5.90;95.80;;;;;;5017744;28;20233;-92
2021/11/16 15:41:55;;;;;;;15.17;8.90;;;5.80;95.70;;;;;;5031182;28;20236;-91
2021/11/16 15:44:32;;;;;;;13.73;8.53;;;5.70;96.00;;;;;;5029494;28;20681;-93
2021/11/16 15:47:13;;;;;;;12.70;8.53;;;5.60;96.40;;;;;;5035364;28;20198;-91
2021/11/16 15:58:14;;;;;;;13.90;8.90;;;5.80;96.60;;;;;;5015743;28;20269;-95
2021/11/16 16:00:51;;;;;;;14.50;9.07;;;6.00;95.30;;;;;;5023465;28;20202;-94
2021/11/16 16:03:22;;;;;;;13.30;8.77;;;6.00;95.30;;;;;;5016922;28;20590;-94
2021/11/16 16:05:59;;;;;;;13.13;8.23;;;5.90;95.30;;;;;;5022570;28;20689;-92
2021/11/16 16:08:40;;;;;;;12.37;8.30;;;5.90;95.60;;;;;;5028343;28;20231;-92
2021/11/16 16:11:30;;;;;;;11.17;8.07;;;6.00;95.30;;;;;;5026688;28;20265;-94
2021/11/16 16:19:45;;;;;;;14.67;8.70;;;5.80;96.00;;;;;;5024493;28;20198;-94
2021/11/16 16:22:15;;;;;;;11.07;7.97;;;5.90;95.90;;;;;;5031729;28;20195;-94
2021/11/16 16:38:46;;;;;;;14.37;9.30;;;6.00;95.90;;;;;;5031497;28;20226;-93
2021/11/16 16:41:21;;;;;;;13.17;9.00;;;5.90;96.00;;;;;;5030315;28;20816;-95
2021/11/16 16:46:58;;;;;;;12.93;9.07;;;5.60;96.60;;;;;;5007154;28;20555;-94
2021/11/16 16:52:11;;;;;;;14.07;8.97;;;5.60;96.60;;;;;;5009833;28;20592;-95
2021/11/16 16:54:54;;;;;;;12.30;8.30;;;5.70;97.10;;;;;;5023984;28;20227;-94
2021/11/16 16:57:21;;;;;;;15.50;9.20;;;5.80;96.80;;;;;;5027095;28;20209;-95
2021/11/16 16:59:52;;;;;;;12.97;8.83;;;5.90;96.30;;;;;;5013623;28;20803;-94
2021/11/16 17:02:19;;;;;;;13.40;8.77;;;6.00;96.00;;;;;;5019399;28;20230;-95
2021/11/16 17:04:55;;;;;;;15.47;9.07;;;6.10;95.90;;;;;;4991977;28;20903;-93
2021/11/16 17:10:29;;;;;;;16.60;9.90;;;6.10;95.30;;;;;;5025295;28;20279;-94
2021/11/16 17:21:13;;;;;;;16.57;10.50;;;5.80;96.10;;;;;;5021724;28;20230;-94
2021/11/16 17:23:42;;;;;;;14.40;10.10;;;5.60;96.50;;;;;;4975594;28;20358;-95
2021/11/16 17:32:34;;;;;;;16.23;9.77;;;5.80;96.80;;;;;;5021948;28;20286;-96
2021/11/16 17:35:03;;;;;;;14.60;9.37;;;5.90;96.40;;;;;;5027201;28;20222;-94
2021/11/16 17:42:55;;;;;;;15.77;9.93;;;5.70;96.80;;;;;;5010988;28;20226;-93
2021/11/16 17:45:22;;;;;;;14.73;10.77;;;5.70;97.00;;;;;;5029036;28;20201;-94
2021/11/16 17:50:43;;;;;;;15.90;10.00;;;5.70;97.10;;;;;;5029829;28;20218;-93
2021/11/16 17:53:13;;;;;;;16.30;9.83;;;5.60;97.00;;;;;;5023578;28;20231;-93
2021/11/16 17:55:40;;;;;;;15.93;9.73;;;5.60;97.40;;;;;;5028848;28;20217;-93
2021/11/16 17:58:10;;;;;;;15.57;9.40;;;5.60;97.20;;;;;;5033298;28;20561;-91
2021/11/16 18:00:39;;;;;;;17.10;10.73;;;5.70;97.30;;;;;;5032227;28;20362;-92
2021/11/16 18:03:07;;;;;;;14.13;10.00;;;5.80;96.90;;;;;;5031718;28;20232;-92
2021/11/16 18:05:41;;;;;;;14.03;9.87;;;5.70;96.80;;;;;;5026157;28;21590;-92
2021/11/16 18:08:09;;;;;;;13.57;9.20;;;5.80;96.40;;;;;;5031500;28;20238;-91
2021/11/16 18:10:37;;;;;;;12.57;9.40;;;5.90;96.20;;;;;;5027439;28;20642;-91
2021/11/16 18:13:06;;;;;;;13.07;9.27;;;5.90;95.90;;;;;;5030837;28;20233;-92
2021/11/16 18:15:34;;;;;;;13.47;9.10;;;5.90;95.90;;;;;;5028539;28;20289;-92
2021/11/16 18:18:02;;;;;;;14.33;10.27;;;5.70;96.30;;;;;;5028490;28;20292;-92
2021/11/16 18:20:33;;;;;;;15.00;10.63;;;5.60;96.70;;;;;;5025606;28;20206;-92
2021/11/16 18:23:01;;;;;;;13.03;9.43;;;5.60;96.90;;;;;;5025901;28;20230;-91
2021/11/16 18:25:28;;;;;;;13.07;9.47;;;5.60;97.20;;;;;;5023957;28;20210;-90
2021/11/16 18:28:07;;;;;;;14.73;9.47;;;5.80;96.90;;;;;;5025268;28;20313;-92
2021/11/16 18:30:55;;;;;;;12.93;9.03;;;6.00;96.60;;;;;;5022997;28;20233;-92
2021/11/16 18:33:24;;;;;;;17.40;9.60;;;6.00;96.10;;;;;;5026297;28;20292;-92
2021/11/16 18:35:53;;;;;;;13.10;9.63;;;6.10;96.00;;;;;;5026305;28;20199;-92
2021/11/16 18:38:26;;;;;;;14.10;10.10;;;6.00;96.20;;;;;;5024219;28;20592;-91
2021/11/16 18:41:05;;;;;;;17.10;10.03;;;6.10;96.10;;;;;;5020902;28;20264;-91
2021/11/16 18:43:39;;;;;;;15.70;10.30;;;6.00;95.70;;;;;;5024721;28;20241;-92
2021/11/16 18:46:09;;;;;;;16.10;10.30;;;6.00;96.30;;;;;;5028076;28;20926;-91
2021/11/16 18:48:41;;;;;;;13.53;9.33;;;6.00;96.00;;;;;;5024440;28;20222;-92
2021/11/16 18:51:09;;;;;;;15.53;9.80;;;6.10;96.00;;;;;;5022333;28;20215;-92
2021/11/16 18:53:36;;;;;;;14.77;9.93;;;6.20;95.80;;;;;;5028235;28;20705;-91
2021/11/16 18:56:07;;;;;;;16.17;10.37;;;6.20;95.80;;;;;;5030527;28;20195;-93
2021/11/16 18:58:34;;;;;;;14.90;9.67;;;6.20;95.80;;;;;;5029189;28;20230;-93
2021/11/16 19:01:01;;;;;;;15.27;9.73;;;6.20;95.70;;;;;;5030396;28;20772;-93
2021/11/16 19:03:29;;;;;;;15.03;9.67;;;6.10;95.70;;;;;;5020181;28;20694;-92
2021/11/16 19:05:56;;;;;;;14.73;9.80;;;6.10;96.00;;;;;;5024344;28;20297;-90
2021/11/16 19:08:26;;;;;;;12.07;9.17;;;5.90;96.00;;;;;;5019459;28;20218;-92
2021/11/16 19:10:54;;;;;;;14.87;9.70;;;5.80;96.70;;;;;;5023345;28;20214;-92
2021/11/16 19:13:21;;;;;;;15.17;10.30;;;5.90;96.70;;;;;;5022308;28;20309;-90
2021/11/16 19:15:49;;;;;;;16.00;10.00;;;5.90;96.50;;;;;;5022522;28;20205;-90
2021/11/16 19:18:18;;;;;;;15.23;9.70;;;6.00;96.30;;;;;;5004214;28;20233;-92